Terminal Aerodrome Forecast
Issued by NWS

Home | Current Version | Previous Version | Text Only | Print | Product List | Glossary On
Versions: 1 2 3 4 5 6 7 8 9 10 11 12 13 14 15 16 17 18 19 20 21 22 23
791
FTUS46 KEKA 301744
TAFCEC
TAF
KCEC 301744Z 3018/3118 18009KT P6SM SCT006
     FM302100 19011G16KT P6SM SKC
     FM310000 28015G20KT P6SM FEW007
     FM310700 17010KT 6SM BR BKN006
     FM311000 35004KT 1SM BR OVC004=

USA.gov is the U.S. government's official web portal to all federal, state and local government web resources and services.